Terminal Aerodrome Forecast
Issued by NWS

Home | Current Version | Previous Version | Text Only | Print | Product List | Glossary On
Versions: 1 2 3 4 5 6 7 8 9 10 11 12 13 14 15
916
FTUS42 KTAE 051522 AAB
TAFVLD
TAF AMD
KVLD 051522Z 0515/0612 18005KT 5SM BR VCSH BKN006
      TEMPO 0515/0517 3SM BR BKN003
     FM051700 17005KT 6SM -RA BKN010
     FM052100 16005KT 4SM +TSRA OVC007CB
     FM060200 16008KT 3SM RA BR OVC005=

USA.gov is the U.S. government's official web portal to all federal, state and local government web resources and services.